sensor_id;sensor_type;location;lat;lon;timestamp;temperature;humidity
8856;DHT22;4464;50.882;4.730;2023-02-28T00:00:52;0.30;99.90
8856;DHT22;4464;50.882;4.730;2023-02-28T00:03:18;0.30;99.90
8856;DHT22;4464;50.882;4.730;2023-02-28T00:05:46;0.30;99.90
8856;DHT22;4464;50.882;4.730;2023-02-28T00:08:15;0.20;99.90
8856;DHT22;4464;50.882;4.730;2023-02-28T00:10:40;0.30;99.90
8856;DHT22;4464;50.882;4.730;2023-02-28T00:13:07;0.30;99.90
8856;DHT22;4464;50.882;4.730;2023-02-28T00:15:35;0.10;99.90
8856;DHT22;4464;50.882;4.730;2023-02-28T00:18:02;0.20;99.90
8856;DHT22;4464;50.882;4.730;2023-02-28T00:20:29;0.20;99.90
8856;DHT22;4464;50.882;4.730;2023-02-28T00:22:55;0.10;99.90
8856;DHT22;4464;50.882;4.730;2023-02-28T00:25:25;0.10;99.90
8856;DHT22;4464;50.882;4.730;2023-02-28T00:27:51;0.00;99.90
8856;DHT22;4464;50.882;4.730;2023-02-28T00:30:22;0.00;99.90
8856;DHT22;4464;50.882;4.730;2023-02-28T00:32:49;0.00;99.90
8856;DHT22;4464;50.882;4.730;2023-02-28T00:35:17;-0.10;99.90
8856;DHT22;4464;50.882;4.730;2023-02-28T00:37:45;-0.10;99.90
8856;DHT22;4464;50.882;4.730;2023-02-28T00:40:11;-0.10;99.90
8856;DHT22;4464;50.882;4.730;2023-02-28T00:42:37;-0.10;99.90
8856;DHT22;4464;50.882;4.730;2023-02-28T00:45:06;-0.10;99.90
8856;DHT22;4464;50.882;4.730;2023-02-28T00:47:36;-0.10;99.90
8856;DHT22;4464;50.882;4.730;2023-02-28T00:50:03;-0.10;99.90
8856;DHT22;4464;50.882;4.730;2023-02-28T00:52:29;-0.10;99.90
8856;DHT22;4464;50.882;4.730;2023-02-28T00:54:58;-0.10;99.90
8856;DHT22;4464;50.882;4.730;2023-02-28T00:57:23;-0.10;99.90
8856;DHT22;4464;50.882;4.730;2023-02-28T00:59:52;-0.10;99.90
8856;DHT22;4464;50.882;4.730;2023-02-28T01:02:22;-0.20;99.90
8856;DHT22;4464;50.882;4.730;2023-02-28T01:04:48;-0.10;99.90
8856;DHT22;4464;50.882;4.730;2023-02-28T01:07:14;-0.10;99.90
8856;DHT22;4464;50.882;4.730;2023-02-28T01:09:41;-0.10;99.90
8856;DHT22;4464;50.882;4.730;2023-02-28T01:12:08;-0.10;99.90
8856;DHT22;4464;50.882;4.730;2023-02-28T01:14:34;-0.10;99.90
8856;DHT22;4464;50.882;4.730;2023-02-28T01:17:00;-0.20;99.90
8856;DHT22;4464;50.882;4.730;2023-02-28T01:19:28;-0.20;99.90
8856;DHT22;4464;50.882;4.730;2023-02-28T01:21:54;-0.20;99.90
8856;DHT22;4464;50.882;4.730;2023-02-28T01:24:19;-0.20;99.90
8856;DHT22;4464;50.882;4.730;2023-02-28T01:26:45;-0.20;99.90
8856;DHT22;4464;50.882;4.730;2023-02-28T01:29:16;-0.20;99.90
8856;DHT22;4464;50.882;4.730;2023-02-28T01:31:41;-0.20;99.90
8856;DHT22;4464;50.882;4.730;2023-02-28T01:34:07;-0.20;99.90
8856;DHT22;4464;50.882;4.730;2023-02-28T01:36:33;-0.30;99.90
8856;DHT22;4464;50.882;4.730;2023-02-28T01:38:59;-0.20;99.90
8856;DHT22;4464;50.882;4.730;2023-02-28T01:41:31;-0.20;99.90
8856;DHT22;4464;50.882;4.730;2023-02-28T01:46:35;-0.20;99.90
8856;DHT22;4464;50.882;4.730;2023-02-28T01:49:14;-0.20;99.90
8856;DHT22;4464;50.882;4.730;2023-02-28T01:51:50;-0.20;99.90
8856;DHT22;4464;50.882;4.730;2023-02-28T01:54:27;-0.20;99.90
8856;DHT22;4464;50.882;4.730;2023-02-28T01:56:57;-0.20;99.90
8856;DHT22;4464;50.882;4.730;2023-02-28T01:59:29;-0.30;99.90
8856;DHT22;4464;50.882;4.730;2023-02-28T02:01:56;-0.20;99.90
8856;DHT22;4464;50.882;4.730;2023-02-28T02:04:26;-0.30;99.90
8856;DHT22;4464;50.882;4.730;2023-02-28T02:06:53;-0.30;99.90
8856;DHT22;4464;50.882;4.730;2023-02-28T02:09:22;-0.30;99.90
8856;DHT22;4464;50.882;4.730;2023-02-28T02:11:50;-0.30;99.90
8856;DHT22;4464;50.882;4.730;2023-02-28T02:23:13;-0.40;99.90
8856;DHT22;4464;50.882;4.730;2023-02-28T02:25:49;-0.40;99.90
8856;DHT22;4464;50.882;4.730;2023-02-28T02:36:45;-0.50;99.90
8856;DHT22;4464;50.882;4.730;2023-02-28T02:42:13;-0.50;99.90
8856;DHT22;4464;50.882;4.730;2023-02-28T02:44:40;-0.60;99.90
8856;DHT22;4464;50.882;4.730;2023-02-28T02:47:13;-0.60;99.90
8856;DHT22;4464;50.882;4.730;2023-02-28T02:49:43;-0.60;99.90
8856;DHT22;4464;50.882;4.730;2023-02-28T02:52:13;-0.60;99.90
8856;DHT22;4464;50.882;4.730;2023-02-28T02:54:43;-0.50;99.90
8856;DHT22;4464;50.882;4.730;2023-02-28T02:57:22;-0.50;99.90
8856;DHT22;4464;50.882;4.730;2023-02-28T02:59:50;-0.60;99.90
8856;DHT22;4464;50.882;4.730;2023-02-28T03:02:17;-0.60;99.90
8856;DHT22;4464;50.882;4.730;2023-02-28T03:04:57;-0.60;99.90
8856;DHT22;4464;50.882;4.730;2023-02-28T03:07:26;-0.70;99.90
8856;DHT22;4464;50.882;4.730;2023-02-28T03:09:54;-0.70;99.90
8856;DHT22;4464;50.882;4.730;2023-02-28T03:12:23;-0.70;99.90
8856;DHT22;4464;50.882;4.730;2023-02-28T03:15:27;-0.70;99.90
8856;DHT22;4464;50.882;4.730;2023-02-28T03:18:10;-0.70;99.90
8856;DHT22;4464;50.882;4.730;2023-02-28T03:20:56;-0.80;99.90
8856;DHT22;4464;50.882;4.730;2023-02-28T03:23:38;-0.80;99.90
8856;DHT22;4464;50.882;4.730;2023-02-28T03:26:17;-0.80;99.90
8856;DHT22;4464;50.882;4.730;2023-02-28T03:31:43;-0.80;99.90
8856;DHT22;4464;50.882;4.730;2023-02-28T03:34:31;-0.80;99.90
8856;DHT22;4464;50.882;4.730;2023-02-28T03:37:01;-0.80;99.90
8856;DHT22;4464;50.882;4.730;2023-02-28T03:39:36;-0.80;99.90
8856;DHT22;4464;50.882;4.730;2023-02-28T03:42:18;-0.90;99.90
8856;DHT22;4464;50.882;4.730;2023-02-28T03:44:50;-0.90;99.90
8856;DHT22;4464;50.882;4.730;2023-02-28T03:49:50;-1.00;99.90
8856;DHT22;4464;50.882;4.730;2023-02-28T03:52:22;-1.00;99.90
8856;DHT22;4464;50.882;4.730;2023-02-28T03:54:54;-1.00;99.90
8856;DHT22;4464;50.882;4.730;2023-02-28T03:57:32;-1.10;99.90
8856;DHT22;4464;50.882;4.730;2023-02-28T04:00:16;-1.10;99.90
8856;DHT22;4464;50.882;4.730;2023-02-28T04:02:48;-1.10;99.90
8856;DHT22;4464;50.882;4.730;2023-02-28T04:05:19;-1.20;99.90
8856;DHT22;4464;50.882;4.730;2023-02-28T04:07:47;-1.10;99.90
8856;DHT22;4464;50.882;4.730;2023-02-28T04:10:15;-1.00;99.90
8856;DHT22;4464;50.882;4.730;2023-02-28T04:12:43;-0.90;99.90
8856;DHT22;4464;50.882;4.730;2023-02-28T04:15:09;-0.80;99.90
8856;DHT22;4464;50.882;4.730;2023-02-28T04:17:41;-0.60;99.90
8856;DHT22;4464;50.882;4.730;2023-02-28T04:20:07;-0.50;99.90
8856;DHT22;4464;50.882;4.730;2023-02-28T04:22:35;-0.50;99.90
8856;DHT22;4464;50.882;4.730;2023-02-28T04:25:04;-0.50;99.90
8856;DHT22;4464;50.882;4.730;2023-02-28T04:27:31;-0.40;99.90
8856;DHT22;4464;50.882;4.730;2023-02-28T04:29:59;-0.40;99.90
8856;DHT22;4464;50.882;4.730;2023-02-28T04:32:24;-0.40;99.90
8856;DHT22;4464;50.882;4.730;2023-02-28T04:34:50;-0.40;99.90
8856;DHT22;4464;50.882;4.730;2023-02-28T04:37:16;-0.40;99.90
8856;DHT22;4464;50.882;4.730;2023-02-28T04:39:42;-0.40;99.90
8856;DHT22;4464;50.882;4.730;2023-02-28T04:42:10;-0.40;99.90
8856;DHT22;4464;50.882;4.730;2023-02-28T04:44:36;-0.50;99.90
8856;DHT22;4464;50.882;4.730;2023-02-28T04:47:02;-0.60;99.90
8856;DHT22;4464;50.882;4.730;2023-02-28T04:49:30;-0.60;99.90
8856;DHT22;4464;50.882;4.730;2023-02-28T04:51:56;-0.60;99.90
8856;DHT22;4464;50.882;4.730;2023-02-28T04:54:22;-0.60;99.90
8856;DHT22;4464;50.882;4.730;2023-02-28T04:56:47;-0.60;99.90
8856;DHT22;4464;50.882;4.730;2023-02-28T04:59:15;-0.60;99.90
8856;DHT22;4464;50.882;4.730;2023-02-28T05:01:46;-0.60;99.90
8856;DHT22;4464;50.882;4.730;2023-02-28T05:04:11;-0.60;99.90
8856;DHT22;4464;50.882;4.730;2023-02-28T05:06:37;-0.50;99.90
8856;DHT22;4464;50.882;4.730;2023-02-28T05:09:05;-0.50;99.90
8856;DHT22;4464;50.882;4.730;2023-02-28T05:11:33;-0.50;99.90
8856;DHT22;4464;50.882;4.730;2023-02-28T05:14:04;-0.50;99.90
8856;DHT22;4464;50.882;4.730;2023-02-28T05:16:31;-0.50;99.90
8856;DHT22;4464;50.882;4.730;2023-02-28T05:18:57;-0.50;99.90
8856;DHT22;4464;50.882;4.730;2023-02-28T05:23:55;-0.40;99.90
8856;DHT22;4464;50.882;4.730;2023-02-28T05:26:22;-0.40;99.90
8856;DHT22;4464;50.882;4.730;2023-02-28T05:28:48;-0.40;99.90
8856;DHT22;4464;50.882;4.730;2023-02-28T05:31:16;-0.50;99.90
8856;DHT22;4464;50.882;4.730;2023-02-28T05:33:42;-0.50;99.90
8856;DHT22;4464;50.882;4.730;2023-02-28T05:36:08;-0.40;99.90
8856;DHT22;4464;50.882;4.730;2023-02-28T05:38:34;-0.40;99.90
8856;DHT22;4464;50.882;4.730;2023-02-28T05:41:04;-0.40;99.90
8856;DHT22;4464;50.882;4.730;2023-02-28T05:43:30;-0.30;99.90
8856;DHT22;4464;50.882;4.730;2023-02-28T05:45:58;-0.30;99.90
8856;DHT22;4464;50.882;4.730;2023-02-28T05:48:24;-0.40;99.90
8856;DHT22;4464;50.882;4.730;2023-02-28T05:50:51;-0.40;99.90
8856;DHT22;4464;50.882;4.730;2023-02-28T05:53:19;-0.40;99.90
8856;DHT22;4464;50.882;4.730;2023-02-28T05:55:47;-0.50;99.90
8856;DHT22;4464;50.882;4.730;2023-02-28T05:58:15;-0.50;99.90
8856;DHT22;4464;50.882;4.730;2023-02-28T06:00:41;-0.50;99.90
8856;DHT22;4464;50.882;4.730;2023-02-28T06:03:07;-0.50;99.90
8856;DHT22;4464;50.882;4.730;2023-02-28T06:05:32;-0.50;99.90
8856;DHT22;4464;50.882;4.730;2023-02-28T06:07:58;-0.60;99.90
8856;DHT22;4464;50.882;4.730;2023-02-28T06:10:24;-0.60;99.90
8856;DHT22;4464;50.882;4.730;2023-02-28T06:12:50;-0.60;99.90
8856;DHT22;4464;50.882;4.730;2023-02-28T06:15:16;-0.50;99.90
8856;DHT22;4464;50.882;4.730;2023-02-28T06:17:43;-0.50;99.90
8856;DHT22;4464;50.882;4.730;2023-02-28T06:20:10;-0.50;99.90
8856;DHT22;4464;50.882;4.730;2023-02-28T06:22:40;-0.50;99.90
8856;DHT22;4464;50.882;4.730;2023-02-28T06:25:07;-0.50;99.90
8856;DHT22;4464;50.882;4.730;2023-02-28T06:27:33;-0.60;99.90
8856;DHT22;4464;50.882;4.730;2023-02-28T06:30:01;-0.60;99.90
8856;DHT22;4464;50.882;4.730;2023-02-28T06:32:29;-0.70;99.90
8856;DHT22;4464;50.882;4.730;2023-02-28T06:34:58;-0.70;99.90
8856;DHT22;4464;50.882;4.730;2023-02-28T06:37:23;-0.80;99.90
8856;DHT22;4464;50.882;4.730;2023-02-28T06:39:51;-0.80;99.90
8856;DHT22;4464;50.882;4.730;2023-02-28T06:42:17;-0.80;99.90
8856;DHT22;4464;50.882;4.730;2023-02-28T06:44:43;-0.70;99.90
8856;DHT22;4464;50.882;4.730;2023-02-28T06:47:09;-0.70;99.90
8856;DHT22;4464;50.882;4.730;2023-02-28T06:49:35;-0.60;99.90
8856;DHT22;4464;50.882;4.730;2023-02-28T06:52:02;-0.60;99.90
8856;DHT22;4464;50.882;4.730;2023-02-28T06:54:30;-0.60;99.90
8856;DHT22;4464;50.882;4.730;2023-02-28T06:56:57;-0.70;99.90
8856;DHT22;4464;50.882;4.730;2023-02-28T06:59:23;-0.70;99.90
8856;DHT22;4464;50.882;4.730;2023-02-28T07:01:49;-0.70;99.90
8856;DHT22;4464;50.882;4.730;2023-02-28T07:04:15;-0.70;99.90
8856;DHT22;4464;50.882;4.730;2023-02-28T07:06:41;-0.70;99.90
8856;DHT22;4464;50.882;4.730;2023-02-28T07:09:07;-0.70;99.90
8856;DHT22;4464;50.882;4.730;2023-02-28T07:11:32;-0.70;99.90
8856;DHT22;4464;50.882;4.730;2023-02-28T07:13:58;-0.70;99.90
8856;DHT22;4464;50.882;4.730;2023-02-28T07:16:25;-0.60;99.90
8856;DHT22;4464;50.882;4.730;2023-02-28T07:18:53;-0.50;99.90
8856;DHT22;4464;50.882;4.730;2023-02-28T07:21:20;-0.50;99.90
8856;DHT22;4464;50.882;4.730;2023-02-28T07:23:48;-0.50;99.90
8856;DHT22;4464;50.882;4.730;2023-02-28T07:26:17;-0.40;99.90
8856;DHT22;4464;50.882;4.730;2023-02-28T07:28:44;-0.30;99.90
8856;DHT22;4464;50.882;4.730;2023-02-28T07:31:11;-0.30;99.90
8856;DHT22;4464;50.882;4.730;2023-02-28T07:33:39;-0.20;99.90
8856;DHT22;4464;50.882;4.730;2023-02-28T07:36:16;-0.10;99.90
8856;DHT22;4464;50.882;4.730;2023-02-28T07:38:47;0.00;99.90
8856;DHT22;4464;50.882;4.730;2023-02-28T07:41:21;0.10;99.90
8856;DHT22;4464;50.882;4.730;2023-02-28T07:43:52;0.20;99.90
8856;DHT22;4464;50.882;4.730;2023-02-28T07:46:19;0.40;99.90
8856;DHT22;4464;50.882;4.730;2023-02-28T07:48:48;0.70;99.90
8856;DHT22;4464;50.882;4.730;2023-02-28T07:51:14;1.00;99.90
8856;DHT22;4464;50.882;4.730;2023-02-28T07:53:40;1.40;99.90
8856;DHT22;4464;50.882;4.730;2023-02-28T07:56:08;1.80;99.90
8856;DHT22;4464;50.882;4.730;2023-02-28T07:58:36;2.20;99.90
8856;DHT22;4464;50.882;4.730;2023-02-28T08:01:07;2.60;99.90
8856;DHT22;4464;50.882;4.730;2023-02-28T08:03:36;3.00;99.90
8856;DHT22;4464;50.882;4.730;2023-02-28T08:06:16;3.40;99.90
8856;DHT22;4464;50.882;4.730;2023-02-28T08:08:42;3.70;99.90
8856;DHT22;4464;50.882;4.730;2023-02-28T08:11:10;4.00;99.90
8856;DHT22;4464;50.882;4.730;2023-02-28T08:13:36;4.30;99.90
8856;DHT22;4464;50.882;4.730;2023-02-28T08:16:02;4.40;99.90
8856;DHT22;4464;50.882;4.730;2023-02-28T08:18:28;4.60;99.90
8856;DHT22;4464;50.882;4.730;2023-02-28T08:20:53;4.90;99.90
8856;DHT22;4464;50.882;4.730;2023-02-28T08:23:19;5.00;99.90
8856;DHT22;4464;50.882;4.730;2023-02-28T08:25:53;5.30;99.90
8856;DHT22;4464;50.882;4.730;2023-02-28T08:28:18;5.40;99.90
8856;DHT22;4464;50.882;4.730;2023-02-28T08:30:47;5.30;99.90
8856;DHT22;4464;50.882;4.730;2023-02-28T08:33:12;5.20;99.90
8856;DHT22;4464;50.882;4.730;2023-02-28T08:35:38;5.30;99.90
8856;DHT22;4464;50.882;4.730;2023-02-28T08:38:06;5.50;99.90
8856;DHT22;4464;50.882;4.730;2023-02-28T08:40:34;5.80;99.90
8856;DHT22;4464;50.882;4.730;2023-02-28T08:43:02;5.70;99.40
8856;DHT22;4464;50.882;4.730;2023-02-28T08:45:28;5.90;99.80
8856;DHT22;4464;50.882;4.730;2023-02-28T08:47:54;6.10;99.10
8856;DHT22;4464;50.882;4.730;2023-02-28T08:50:21;6.10;98.80
8856;DHT22;4464;50.882;4.730;2023-02-28T08:52:47;6.30;98.30
8856;DHT22;4464;50.882;4.730;2023-02-28T08:55:13;6.50;97.60
8856;DHT22;4464;50.882;4.730;2023-02-28T08:57:39;6.80;97.20
8856;DHT22;4464;50.882;4.730;2023-02-28T09:00:05;7.20;96.60
8856;DHT22;4464;50.882;4.730;2023-02-28T09:02:31;7.40;96.30
8856;DHT22;4464;50.882;4.730;2023-02-28T09:04:57;7.20;95.00
8856;DHT22;4464;50.882;4.730;2023-02-28T09:07:26;7.10;95.20
8856;DHT22;4464;50.882;4.730;2023-02-28T09:09:52;7.30;95.00
8856;DHT22;4464;50.882;4.730;2023-02-28T09:12:22;7.70;94.40
8856;DHT22;4464;50.882;4.730;2023-02-28T09:14:51;8.10;94.30
8856;DHT22;4464;50.882;4.730;2023-02-28T09:17:17;8.50;93.20
8856;DHT22;4464;50.882;4.730;2023-02-28T09:19:43;8.20;92.70
8856;DHT22;4464;50.882;4.730;2023-02-28T09:22:12;8.40;92.50
8856;DHT22;4464;50.882;4.730;2023-02-28T09:24:38;8.60;91.80
8856;DHT22;4464;50.882;4.730;2023-02-28T09:27:04;9.30;91.10
8856;DHT22;4464;50.882;4.730;2023-02-28T09:29:32;9.50;90.00
8856;DHT22;4464;50.882;4.730;2023-02-28T09:32:00;9.90;87.60
8856;DHT22;4464;50.882;4.730;2023-02-28T09:34:29;9.90;85.50
8856;DHT22;4464;50.882;4.730;2023-02-28T09:36:58;10.00;84.10
8856;DHT22;4464;50.882;4.730;2023-02-28T09:39:24;9.70;85.10
8856;DHT22;4464;50.882;4.730;2023-02-28T09:41:55;9.80;83.60
8856;DHT22;4464;50.882;4.730;2023-02-28T09:44:37;10.00;82.80
8856;DHT22;4464;50.882;4.730;2023-02-28T09:47:45;10.30;81.00
8856;DHT22;4464;50.882;4.730;2023-02-28T09:52:54;9.70;77.20
8856;DHT22;4464;50.882;4.730;2023-02-28T09:55:33;8.90;78.30
8856;DHT22;4464;50.882;4.730;2023-02-28T09:58:01;8.60;80.10
8856;DHT22;4464;50.882;4.730;2023-02-28T10:00:34;9.20;79.50
8856;DHT22;4464;50.882;4.730;2023-02-28T10:06:14;9.50;77.30
8856;DHT22;4464;50.882;4.730;2023-02-28T10:11:42;10.80;74.60
8856;DHT22;4464;50.882;4.730;2023-02-28T10:14:22;11.20;72.20
8856;DHT22;4464;50.882;4.730;2023-02-28T10:19:53;11.70;69.90
8856;DHT22;4464;50.882;4.730;2023-02-28T10:22:29;11.70;69.40
8856;DHT22;4464;50.882;4.730;2023-02-28T10:25:21;10.50;69.20
8856;DHT22;4464;50.882;4.730;2023-02-28T10:27:48;9.20;73.70
8856;DHT22;4464;50.882;4.730;2023-02-28T10:30:19;10.10;72.90
8856;DHT22;4464;50.882;4.730;2023-02-28T10:32:50;10.40;70.50
8856;DHT22;4464;50.882;4.730;2023-02-28T10:35:22;10.40;70.10
8856;DHT22;4464;50.882;4.730;2023-02-28T10:37:53;10.70;69.80
8856;DHT22;4464;50.882;4.730;2023-02-28T10:43:05;11.60;66.90
8856;DHT22;4464;50.882;4.730;2023-02-28T10:45:35;11.50;66.40
8856;DHT22;4464;50.882;4.730;2023-02-28T10:50:51;11.80;65.10
8856;DHT22;4464;50.882;4.730;2023-02-28T10:58:49;10.60;67.70
8856;DHT22;4464;50.882;4.730;2023-02-28T11:03:55;9.40;68.40
8856;DHT22;4464;50.882;4.730;2023-02-28T11:06:30;8.40;70.20
8856;DHT22;4464;50.882;4.730;2023-02-28T11:09:04;8.80;70.80
8856;DHT22;4464;50.882;4.730;2023-02-28T11:11:42;9.80;68.60
8856;DHT22;4464;50.882;4.730;2023-02-28T11:14:22;11.30;65.40
8856;DHT22;4464;50.882;4.730;2023-02-28T11:16:50;12.30;64.10
8856;DHT22;4464;50.882;4.730;2023-02-28T11:19:20;13.10;62.40
8856;DHT22;4464;50.882;4.730;2023-02-28T11:21:54;13.80;61.20
8856;DHT22;4464;50.882;4.730;2023-02-28T11:26:50;13.70;57.00
8856;DHT22;4464;50.882;4.730;2023-02-28T11:29:29;13.70;57.40
8856;DHT22;4464;50.882;4.730;2023-02-28T11:34:40;13.80;56.30
8856;DHT22;4464;50.882;4.730;2023-02-28T11:37:14;14.50;56.20
8856;DHT22;4464;50.882;4.730;2023-02-28T11:39:43;13.80;54.60
8856;DHT22;4464;50.882;4.730;2023-02-28T11:56:45;14.60;54.40
8856;DHT22;4464;50.882;4.730;2023-02-28T12:02:08;15.00;53.50
8856;DHT22;4464;50.882;4.730;2023-02-28T12:05:15;14.50;53.00
8856;DHT22;4464;50.882;4.730;2023-02-28T12:10:26;15.00;53.20
8856;DHT22;4464;50.882;4.730;2023-02-28T12:26:38;12.50;54.60
8856;DHT22;4464;50.882;4.730;2023-02-28T12:32:04;13.70;52.90
8856;DHT22;4464;50.882;4.730;2023-02-28T12:34:41;14.30;52.60
8856;DHT22;4464;50.882;4.730;2023-02-28T12:37:15;14.70;51.20
8856;DHT22;4464;50.882;4.730;2023-02-28T12:39:50;14.30;51.60
8856;DHT22;4464;50.882;4.730;2023-02-28T12:42:28;14.30;51.90
8856;DHT22;4464;50.882;4.730;2023-02-28T12:45:17;14.90;51.80
8856;DHT22;4464;50.882;4.730;2023-02-28T12:47:50;15.70;50.80
8856;DHT22;4464;50.882;4.730;2023-02-28T12:50:18;16.20;49.60
8856;DHT22;4464;50.882;4.730;2023-02-28T13:09:33;15.60;49.20
8856;DHT22;4464;50.882;4.730;2023-02-28T13:11:59;16.10;48.40
8856;DHT22;4464;50.882;4.730;2023-02-28T13:19:35;15.20;49.20
8856;DHT22;4464;50.882;4.730;2023-02-28T13:22:03;14.00;48.60
8856;DHT22;4464;50.882;4.730;2023-02-28T13:24:45;13.60;49.50
8856;DHT22;4464;50.882;4.730;2023-02-28T13:27:22;13.50;51.30
8856;DHT22;4464;50.882;4.730;2023-02-28T13:29:50;14.40;49.50
8856;DHT22;4464;50.882;4.730;2023-02-28T13:32:29;14.60;49.50
8856;DHT22;4464;50.882;4.730;2023-02-28T13:55:48;14.40;49.50
8856;DHT22;4464;50.882;4.730;2023-02-28T14:01:46;14.80;49.40
8856;DHT22;4464;50.882;4.730;2023-02-28T14:06:55;15.30;48.60
8856;DHT22;4464;50.882;4.730;2023-02-28T14:09:31;15.00;47.90
8856;DHT22;4464;50.882;4.730;2023-02-28T14:15:23;15.90;48.80
8856;DHT22;4464;50.882;4.730;2023-02-28T14:17:55;16.20;48.30
8856;DHT22;4464;50.882;4.730;2023-02-28T14:20:24;16.80;47.50
8856;DHT22;4464;50.882;4.730;2023-02-28T14:25:47;16.00;48.60
8856;DHT22;4464;50.882;4.730;2023-02-28T14:31:07;16.50;47.60
8856;DHT22;4464;50.882;4.730;2023-02-28T14:39:06;14.20;49.40
8856;DHT22;4464;50.882;4.730;2023-02-28T14:41:38;15.30;49.80
8856;DHT22;4464;50.882;4.730;2023-02-28T14:46:42;15.90;48.50
8856;DHT22;4464;50.882;4.730;2023-02-28T14:49:18;15.80;49.40
8856;DHT22;4464;50.882;4.730;2023-02-28T14:51:44;15.50;48.80
8856;DHT22;4464;50.882;4.730;2023-02-28T14:54:15;15.50;48.00
8856;DHT22;4464;50.882;4.730;2023-02-28T14:56:49;14.90;49.00
8856;DHT22;4464;50.882;4.730;2023-02-28T14:59:33;14.90;49.70
8856;DHT22;4464;50.882;4.730;2023-02-28T15:02:21;15.10;49.10
8856;DHT22;4464;50.882;4.730;2023-02-28T15:04:59;15.90;48.80
8856;DHT22;4464;50.882;4.730;2023-02-28T15:07:27;15.00;48.60
8856;DHT22;4464;50.882;4.730;2023-02-28T15:13:07;15.10;49.00
8856;DHT22;4464;50.882;4.730;2023-02-28T15:20:45;15.80;48.60
8856;DHT22;4464;50.882;4.730;2023-02-28T15:23:14;15.90;48.00
8856;DHT22;4464;50.882;4.730;2023-02-28T15:25:41;15.70;48.00
8856;DHT22;4464;50.882;4.730;2023-02-28T15:28:15;15.50;48.20
8856;DHT22;4464;50.882;4.730;2023-02-28T15:30:54;14.70;49.00
8856;DHT22;4464;50.882;4.730;2023-02-28T15:33:23;15.00;49.60
8856;DHT22;4464;50.882;4.730;2023-02-28T15:35:50;14.60;49.90
8856;DHT22;4464;50.882;4.730;2023-02-28T15:38:26;13.10;50.70
8856;DHT22;4464;50.882;4.730;2023-02-28T15:40:54;13.20;51.10
8856;DHT22;4464;50.882;4.730;2023-02-28T15:48:31;13.00;52.40
8856;DHT22;4464;50.882;4.730;2023-02-28T15:51:17;13.20;51.80
8856;DHT22;4464;50.882;4.730;2023-02-28T15:56:27;13.10;51.50
8856;DHT22;4464;50.882;4.730;2023-02-28T15:58:55;13.30;51.70
8856;DHT22;4464;50.882;4.730;2023-02-28T16:01:30;13.80;51.80
8856;DHT22;4464;50.882;4.730;2023-02-28T16:04:01;13.70;50.90
8856;DHT22;4464;50.882;4.730;2023-02-28T16:06:42;13.80;51.80
8856;DHT22;4464;50.882;4.730;2023-02-28T16:09:18;13.70;51.90
8856;DHT22;4464;50.882;4.730;2023-02-28T16:11:50;13.70;51.70
8856;DHT22;4464;50.882;4.730;2023-02-28T16:14:23;13.40;51.60
8856;DHT22;4464;50.882;4.730;2023-02-28T16:16:54;12.60;51.50
8856;DHT22;4464;50.882;4.730;2023-02-28T16:19:21;12.10;52.30
8856;DHT22;4464;50.882;4.730;2023-02-28T16:21:48;12.30;52.30
8856;DHT22;4464;50.882;4.730;2023-02-28T16:24:14;12.40;52.70
8856;DHT22;4464;50.882;4.730;2023-02-28T16:26:41;12.40;52.70
8856;DHT22;4464;50.882;4.730;2023-02-28T16:29:15;12.30;52.60
8856;DHT22;4464;50.882;4.730;2023-02-28T16:31:45;11.80;52.90
8856;DHT22;4464;50.882;4.730;2023-02-28T16:34:13;11.30;53.20
8856;DHT22;4464;50.882;4.730;2023-02-28T16:36:38;10.10;53.70
8856;DHT22;4464;50.882;4.730;2023-02-28T16:39:04;9.20;56.40
8856;DHT22;4464;50.882;4.730;2023-02-28T16:41:32;8.30;57.30
8856;DHT22;4464;50.882;4.730;2023-02-28T16:43:59;7.60;58.70
8856;DHT22;4464;50.882;4.730;2023-02-28T16:46:33;7.10;60.00
8856;DHT22;4464;50.882;4.730;2023-02-28T16:48:59;6.80;61.20
8856;DHT22;4464;50.882;4.730;2023-02-28T16:51:24;6.80;61.90
8856;DHT22;4464;50.882;4.730;2023-02-28T16:53:55;6.80;62.30
8856;DHT22;4464;50.882;4.730;2023-02-28T16:56:22;6.70;62.60
8856;DHT22;4464;50.882;4.730;2023-02-28T16:58:50;6.50;62.80
8856;DHT22;4464;50.882;4.730;2023-02-28T17:01:17;6.40;63.80
8856;DHT22;4464;50.882;4.730;2023-02-28T17:03:47;6.30;64.00
8856;DHT22;4464;50.882;4.730;2023-02-28T17:06:20;6.20;63.80
8856;DHT22;4464;50.882;4.730;2023-02-28T17:08:51;6.20;64.50
8856;DHT22;4464;50.882;4.730;2023-02-28T17:11:18;6.10;65.10
8856;DHT22;4464;50.882;4.730;2023-02-28T17:13:44;6.00;65.00
8856;DHT22;4464;50.882;4.730;2023-02-28T17:16:32;6.00;66.70
8856;DHT22;4464;50.882;4.730;2023-02-28T17:19:00;5.90;66.10
8856;DHT22;4464;50.882;4.730;2023-02-28T17:21:27;5.80;66.50
8856;DHT22;4464;50.882;4.730;2023-02-28T17:23:52;5.70;66.80
8856;DHT22;4464;50.882;4.730;2023-02-28T17:26:20;5.70;67.30
8856;DHT22;4464;50.882;4.730;2023-02-28T17:28:52;5.60;67.80
8856;DHT22;4464;50.882;4.730;2023-02-28T17:31:20;5.50;67.70
8856;DHT22;4464;50.882;4.730;2023-02-28T17:33:46;5.50;68.10
8856;DHT22;4464;50.882;4.730;2023-02-28T17:36:17;5.40;69.00
8856;DHT22;4464;50.882;4.730;2023-02-28T17:38:48;5.50;69.10
8856;DHT22;4464;50.882;4.730;2023-02-28T17:41:14;5.40;69.10
8856;DHT22;4464;50.882;4.730;2023-02-28T17:43:39;5.40;69.80
8856;DHT22;4464;50.882;4.730;2023-02-28T17:46:08;5.40;69.60
8856;DHT22;4464;50.882;4.730;2023-02-28T17:48:40;5.40;70.00
8856;DHT22;4464;50.882;4.730;2023-02-28T17:51:12;5.30;70.00
8856;DHT22;4464;50.882;4.730;2023-02-28T17:53:38;5.30;70.80
8856;DHT22;4464;50.882;4.730;2023-02-28T17:56:04;5.20;70.70
8856;DHT22;4464;50.882;4.730;2023-02-28T17:58:30;5.10;70.60
8856;DHT22;4464;50.882;4.730;2023-02-28T18:00:56;5.00;71.30
8856;DHT22;4464;50.882;4.730;2023-02-28T18:03:22;5.00;71.20
8856;DHT22;4464;50.882;4.730;2023-02-28T18:05:50;4.80;71.90
8856;DHT22;4464;50.882;4.730;2023-02-28T18:08:16;4.50;72.10
8856;DHT22;4464;50.882;4.730;2023-02-28T18:10:42;4.40;72.50
8856;DHT22;4464;50.882;4.730;2023-02-28T18:13:10;4.40;74.20
8856;DHT22;4464;50.882;4.730;2023-02-28T18:15:38;4.50;74.40
8856;DHT22;4464;50.882;4.730;2023-02-28T18:18:04;4.50;74.30
8856;DHT22;4464;50.882;4.730;2023-02-28T18:20:33;4.50;73.90
8856;DHT22;4464;50.882;4.730;2023-02-28T18:23:03;4.40;74.00
8856;DHT22;4464;50.882;4.730;2023-02-28T18:25:29;4.40;74.40
8856;DHT22;4464;50.882;4.730;2023-02-28T18:27:55;4.40;74.70
8856;DHT22;4464;50.882;4.730;2023-02-28T18:30:28;4.40;74.90
8856;DHT22;4464;50.882;4.730;2023-02-28T18:32:57;4.30;75.40
8856;DHT22;4464;50.882;4.730;2023-02-28T18:35:26;4.30;75.80
8856;DHT22;4464;50.882;4.730;2023-02-28T18:38:14;4.30;76.20
8856;DHT22;4464;50.882;4.730;2023-02-28T18:40:41;4.20;76.60
8856;DHT22;4464;50.882;4.730;2023-02-28T18:43:08;4.20;77.10
8856;DHT22;4464;50.882;4.730;2023-02-28T18:45:38;4.10;77.10
8856;DHT22;4464;50.882;4.730;2023-02-28T18:48:04;4.10;77.90
8856;DHT22;4464;50.882;4.730;2023-02-28T18:50:33;4.00;78.20
8856;DHT22;4464;50.882;4.730;2023-02-28T18:53:01;4.00;78.70
8856;DHT22;4464;50.882;4.730;2023-02-28T18:55:27;3.90;79.00
8856;DHT22;4464;50.882;4.730;2023-02-28T18:57:56;3.90;78.90
8856;DHT22;4464;50.882;4.730;2023-02-28T19:00:22;3.80;79.40
8856;DHT22;4464;50.882;4.730;2023-02-28T19:02:49;3.60;80.20
8856;DHT22;4464;50.882;4.730;2023-02-28T19:05:18;3.50;80.90
8856;DHT22;4464;50.882;4.730;2023-02-28T19:07:45;3.50;81.30
8856;DHT22;4464;50.882;4.730;2023-02-28T19:10:11;3.40;80.90
8856;DHT22;4464;50.882;4.730;2023-02-28T19:12:38;3.40;81.40
8856;DHT22;4464;50.882;4.730;2023-02-28T19:15:05;3.30;81.20
8856;DHT22;4464;50.882;4.730;2023-02-28T19:17:32;3.30;81.70
8856;DHT22;4464;50.882;4.730;2023-02-28T19:19:58;3.20;82.00
8856;DHT22;4464;50.882;4.730;2023-02-28T19:22:24;3.20;82.80